Terminal Aerodrome Forecast
Issued by NWS

Home | Current Version | Previous Version | Text Only | Print | Product List | Glossary On
Versions: 1 2 3 4 5 6 7 8 9 10 11 12 13 14 15 16 17 18 19 20 21 22 23 24 25
716
FTUS41 KPBZ 191140
TAFMGW
TAF
KMGW 191140Z 1912/2012 16009KT P6SM -RA OVC015 WS020/21045KT
     FM192000 18012KT P6SM BKN050 WS020/21045KT
     FM192300 20009KT P6SM BKN100=

USA.gov is the U.S. government's official web portal to all federal, state and local government web resources and services.